sensor_id;sensor_type;location;lat;lon;timestamp;P1;durP1;ratioP1;P2;durP2;ratioP2
7997;SDS011;4044;49.814;7.828;2023-03-30T00:00:47;4.90;;;2.53;;
7997;SDS011;4044;49.814;7.828;2023-03-30T00:03:13;8.50;;;2.93;;
7997;SDS011;4044;49.814;7.828;2023-03-30T00:05:39;6.57;;;2.33;;
7997;SDS011;4044;49.814;7.828;2023-03-30T00:08:06;6.83;;;2.80;;
7997;SDS011;4044;49.814;7.828;2023-03-30T00:10:32;5.77;;;2.50;;
7997;SDS011;4044;49.814;7.828;2023-03-30T00:12:57;5.37;;;2.57;;
7997;SDS011;4044;49.814;7.828;2023-03-30T00:15:23;7.73;;;2.47;;
7997;SDS011;4044;49.814;7.828;2023-03-30T00:17:49;5.70;;;2.60;;
7997;SDS011;4044;49.814;7.828;2023-03-30T00:20:19;4.13;;;2.77;;
7997;SDS011;4044;49.814;7.828;2023-03-30T00:22:44;4.43;;;2.40;;
7997;SDS011;4044;49.814;7.828;2023-03-30T00:25:12;5.50;;;2.67;;
7997;SDS011;4044;49.814;7.828;2023-03-30T00:27:39;6.47;;;2.97;;
7997;SDS011;4044;49.814;7.828;2023-03-30T00:30:06;3.37;;;3.07;;
7997;SDS011;4044;49.814;7.828;2023-03-30T00:32:37;4.60;;;2.67;;
7997;SDS011;4044;49.814;7.828;2023-03-30T00:35:03;4.33;;;2.80;;
7997;SDS011;4044;49.814;7.828;2023-03-30T00:37:29;4.60;;;2.73;;
7997;SDS011;4044;49.814;7.828;2023-03-30T00:39:56;6.20;;;2.93;;
7997;SDS011;4044;49.814;7.828;2023-03-30T00:42:21;7.07;;;3.17;;
7997;SDS011;4044;49.814;7.828;2023-03-30T00:47:22;6.20;;;3.13;;
7997;SDS011;4044;49.814;7.828;2023-03-30T00:49:49;3.63;;;3.13;;
7997;SDS011;4044;49.814;7.828;2023-03-30T00:52:15;6.00;;;3.87;;
7997;SDS011;4044;49.814;7.828;2023-03-30T00:54:43;4.13;;;3.33;;
7997;SDS011;4044;49.814;7.828;2023-03-30T00:57:10;4.27;;;3.20;;
7997;SDS011;4044;49.814;7.828;2023-03-30T00:59:37;5.10;;;3.40;;
7997;SDS011;4044;49.814;7.828;2023-03-30T01:02:02;4.07;;;3.30;;
7997;SDS011;4044;49.814;7.828;2023-03-30T01:04:29;3.93;;;3.40;;
7997;SDS011;4044;49.814;7.828;2023-03-30T01:06:54;6.10;;;3.53;;
7997;SDS011;4044;49.814;7.828;2023-03-30T01:09:22;5.47;;;2.77;;
7997;SDS011;4044;49.814;7.828;2023-03-30T01:11:48;6.37;;;3.50;;
7997;SDS011;4044;49.814;7.828;2023-03-30T01:14:14;3.63;;;3.30;;
7997;SDS011;4044;49.814;7.828;2023-03-30T01:39:46;3.37;;;2.70;;
7997;SDS011;4044;49.814;7.828;2023-03-30T01:44:52;4.73;;;3.23;;
7997;SDS011;4044;49.814;7.828;2023-03-30T01:47:23;8.67;;;3.60;;
7997;SDS011;4044;49.814;7.828;2023-03-30T01:49:53;4.33;;;3.30;;
7997;SDS011;4044;49.814;7.828;2023-03-30T01:52:23;4.60;;;3.10;;
7997;SDS011;4044;49.814;7.828;2023-03-30T01:54:56;5.20;;;3.27;;
7997;SDS011;4044;49.814;7.828;2023-03-30T01:57:30;4.20;;;2.93;;
7997;SDS011;4044;49.814;7.828;2023-03-30T02:00:14;7.03;;;3.60;;
7997;SDS011;4044;49.814;7.828;2023-03-30T02:02:44;5.57;;;3.50;;
7997;SDS011;4044;49.814;7.828;2023-03-30T02:05:14;4.27;;;3.10;;
7997;SDS011;4044;49.814;7.828;2023-03-30T02:07:42;3.33;;;3.03;;
7997;SDS011;4044;49.814;7.828;2023-03-30T02:10:13;5.23;;;2.83;;
7997;SDS011;4044;49.814;7.828;2023-03-30T02:12:41;7.40;;;3.77;;
7997;SDS011;4044;49.814;7.828;2023-03-30T02:15:09;7.20;;;3.50;;
7997;SDS011;4044;49.814;7.828;2023-03-30T02:17:38;6.73;;;3.13;;
7997;SDS011;4044;49.814;7.828;2023-03-30T02:20:06;6.67;;;3.40;;
7997;SDS011;4044;49.814;7.828;2023-03-30T02:22:36;4.87;;;3.03;;
7997;SDS011;4044;49.814;7.828;2023-03-30T02:25:02;4.17;;;3.43;;
7997;SDS011;4044;49.814;7.828;2023-03-30T02:27:29;9.20;;;3.70;;
7997;SDS011;4044;49.814;7.828;2023-03-30T02:29:56;6.20;;;3.70;;
7997;SDS011;4044;49.814;7.828;2023-03-30T02:32:26;5.37;;;2.97;;
7997;SDS011;4044;49.814;7.828;2023-03-30T02:41:03;4.03;;;3.13;;
7997;SDS011;4044;49.814;7.828;2023-03-30T02:56:59;5.57;;;3.07;;
7997;SDS011;4044;49.814;7.828;2023-03-30T02:59:45;5.43;;;3.07;;
7997;SDS011;4044;49.814;7.828;2023-03-30T03:02:20;6.17;;;2.97;;
7997;SDS011;4044;49.814;7.828;2023-03-30T03:04:51;6.70;;;3.30;;
7997;SDS011;4044;49.814;7.828;2023-03-30T03:07:18;7.17;;;3.03;;
7997;SDS011;4044;49.814;7.828;2023-03-30T03:09:45;7.00;;;2.93;;
7997;SDS011;4044;49.814;7.828;2023-03-30T03:12:11;5.33;;;2.80;;
7997;SDS011;4044;49.814;7.828;2023-03-30T03:14:37;7.93;;;3.37;;
7997;SDS011;4044;49.814;7.828;2023-03-30T03:17:03;6.00;;;3.10;;
7997;SDS011;4044;49.814;7.828;2023-03-30T03:19:29;5.10;;;3.13;;
7997;SDS011;4044;49.814;7.828;2023-03-30T03:21:55;6.37;;;3.13;;
7997;SDS011;4044;49.814;7.828;2023-03-30T03:24:21;8.00;;;3.37;;
7997;SDS011;4044;49.814;7.828;2023-03-30T03:26:47;5.03;;;3.07;;
7997;SDS011;4044;49.814;7.828;2023-03-30T03:29:12;6.40;;;3.30;;
7997;SDS011;4044;49.814;7.828;2023-03-30T03:31:38;5.03;;;3.30;;
7997;SDS011;4044;49.814;7.828;2023-03-30T03:34:04;6.23;;;2.93;;
7997;SDS011;4044;49.814;7.828;2023-03-30T03:36:29;6.57;;;3.37;;
7997;SDS011;4044;49.814;7.828;2023-03-30T03:38:56;5.07;;;3.13;;
7997;SDS011;4044;49.814;7.828;2023-03-30T03:41:21;8.70;;;3.70;;
7997;SDS011;4044;49.814;7.828;2023-03-30T03:43:47;8.80;;;3.30;;
7997;SDS011;4044;49.814;7.828;2023-03-30T03:46:13;7.67;;;3.63;;
7997;SDS011;4044;49.814;7.828;2023-03-30T03:48:39;9.07;;;3.87;;
7997;SDS011;4044;49.814;7.828;2023-03-30T03:51:05;4.77;;;3.70;;
7997;SDS011;4044;49.814;7.828;2023-03-30T03:53:31;6.73;;;3.87;;
7997;SDS011;4044;49.814;7.828;2023-03-30T03:55:57;6.70;;;3.53;;
7997;SDS011;4044;49.814;7.828;2023-03-30T03:58:23;5.90;;;2.97;;
7997;SDS011;4044;49.814;7.828;2023-03-30T04:00:50;8.37;;;3.37;;
7997;SDS011;4044;49.814;7.828;2023-03-30T04:03:16;9.53;;;3.40;;
7997;SDS011;4044;49.814;7.828;2023-03-30T04:05:42;9.70;;;3.43;;
7997;SDS011;4044;49.814;7.828;2023-03-30T04:08:07;7.23;;;3.03;;
7997;SDS011;4044;49.814;7.828;2023-03-30T04:10:37;9.57;;;3.53;;
7997;SDS011;4044;49.814;7.828;2023-03-30T04:13:02;8.00;;;3.57;;
7997;SDS011;4044;49.814;7.828;2023-03-30T04:15:29;8.97;;;3.57;;
7997;SDS011;4044;49.814;7.828;2023-03-30T04:17:55;5.60;;;3.43;;
7997;SDS011;4044;49.814;7.828;2023-03-30T04:20:26;10.00;;;3.33;;
7997;SDS011;4044;49.814;7.828;2023-03-30T04:22:53;6.03;;;3.57;;
7997;SDS011;4044;49.814;7.828;2023-03-30T04:25:20;7.50;;;3.33;;
7997;SDS011;4044;49.814;7.828;2023-03-30T04:27:49;6.33;;;3.07;;
7997;SDS011;4044;49.814;7.828;2023-03-30T04:30:16;10.30;;;3.33;;
7997;SDS011;4044;49.814;7.828;2023-03-30T04:32:42;8.90;;;4.07;;
7997;SDS011;4044;49.814;7.828;2023-03-30T04:35:09;10.10;;;3.93;;
7997;SDS011;4044;49.814;7.828;2023-03-30T04:37:35;5.77;;;3.47;;
7997;SDS011;4044;49.814;7.828;2023-03-30T04:40:02;6.13;;;2.90;;
7997;SDS011;4044;49.814;7.828;2023-03-30T04:42:31;8.40;;;3.70;;
7997;SDS011;4044;49.814;7.828;2023-03-30T04:45:07;8.80;;;3.37;;
7997;SDS011;4044;49.814;7.828;2023-03-30T04:47:33;9.90;;;3.23;;
7997;SDS011;4044;49.814;7.828;2023-03-30T04:49:59;9.83;;;3.27;;
7997;SDS011;4044;49.814;7.828;2023-03-30T04:52:26;6.97;;;3.40;;
7997;SDS011;4044;49.814;7.828;2023-03-30T04:54:53;12.83;;;3.97;;
7997;SDS011;4044;49.814;7.828;2023-03-30T04:57:18;7.17;;;3.20;;
7997;SDS011;4044;49.814;7.828;2023-03-30T04:59:44;14.20;;;3.50;;
7997;SDS011;4044;49.814;7.828;2023-03-30T05:02:10;10.40;;;3.30;;
7997;SDS011;4044;49.814;7.828;2023-03-30T05:04:37;8.93;;;3.30;;
7997;SDS011;4044;49.814;7.828;2023-03-30T05:07:03;18.03;;;3.60;;
7997;SDS011;4044;49.814;7.828;2023-03-30T05:09:30;8.50;;;3.50;;
7997;SDS011;4044;49.814;7.828;2023-03-30T05:11:56;7.83;;;3.53;;
7997;SDS011;4044;49.814;7.828;2023-03-30T05:14:22;11.63;;;4.27;;
7997;SDS011;4044;49.814;7.828;2023-03-30T05:16:48;10.70;;;3.97;;
7997;SDS011;4044;49.814;7.828;2023-03-30T05:19:13;15.03;;;4.03;;
7997;SDS011;4044;49.814;7.828;2023-03-30T05:21:39;10.00;;;4.23;;
7997;SDS011;4044;49.814;7.828;2023-03-30T05:24:05;7.43;;;3.40;;
7997;SDS011;4044;49.814;7.828;2023-03-30T05:26:31;8.53;;;3.90;;
7997;SDS011;4044;49.814;7.828;2023-03-30T05:28:56;10.87;;;3.50;;
7997;SDS011;4044;49.814;7.828;2023-03-30T05:31:22;9.93;;;3.77;;
7997;SDS011;4044;49.814;7.828;2023-03-30T05:33:47;10.23;;;3.73;;
7997;SDS011;4044;49.814;7.828;2023-03-30T05:36:13;17.77;;;4.33;;
7997;SDS011;4044;49.814;7.828;2023-03-30T05:38:38;7.50;;;3.30;;
7997;SDS011;4044;49.814;7.828;2023-03-30T05:41:04;10.63;;;4.20;;
7997;SDS011;4044;49.814;7.828;2023-03-30T05:43:30;9.57;;;3.80;;
7997;SDS011;4044;49.814;7.828;2023-03-30T05:45:57;10.27;;;4.50;;
7997;SDS011;4044;49.814;7.828;2023-03-30T05:48:22;10.67;;;4.40;;
7997;SDS011;4044;49.814;7.828;2023-03-30T05:50:48;10.53;;;4.50;;
7997;SDS011;4044;49.814;7.828;2023-03-30T05:53:14;10.13;;;4.00;;
7997;SDS011;4044;49.814;7.828;2023-03-30T05:55:42;11.83;;;4.50;;
7997;SDS011;4044;49.814;7.828;2023-03-30T05:58:09;15.13;;;4.10;;
7997;SDS011;4044;49.814;7.828;2023-03-30T06:00:34;12.57;;;4.63;;
7997;SDS011;4044;49.814;7.828;2023-03-30T06:03:01;12.80;;;4.53;;
7997;SDS011;4044;49.814;7.828;2023-03-30T06:05:27;12.97;;;4.60;;
7997;SDS011;4044;49.814;7.828;2023-03-30T06:07:52;13.13;;;4.30;;
7997;SDS011;4044;49.814;7.828;2023-03-30T06:10:18;11.73;;;3.93;;
7997;SDS011;4044;49.814;7.828;2023-03-30T06:12:45;11.37;;;4.40;;
7997;SDS011;4044;49.814;7.828;2023-03-30T06:15:10;10.43;;;3.90;;
7997;SDS011;4044;49.814;7.828;2023-03-30T06:17:36;11.47;;;4.40;;
7997;SDS011;4044;49.814;7.828;2023-03-30T06:20:05;11.03;;;4.73;;
7997;SDS011;4044;49.814;7.828;2023-03-30T06:22:35;10.57;;;4.17;;
7997;SDS011;4044;49.814;7.828;2023-03-30T06:25:00;7.83;;;3.83;;
7997;SDS011;4044;49.814;7.828;2023-03-30T06:27:26;9.07;;;4.10;;
7997;SDS011;4044;49.814;7.828;2023-03-30T06:29:55;11.23;;;3.83;;
7997;SDS011;4044;49.814;7.828;2023-03-30T06:32:21;6.63;;;3.67;;
7997;SDS011;4044;49.814;7.828;2023-03-30T06:34:46;6.37;;;3.57;;
7997;SDS011;4044;49.814;7.828;2023-03-30T06:37:12;5.70;;;3.43;;
7997;SDS011;4044;49.814;7.828;2023-03-30T06:39:37;5.33;;;3.27;;
7997;SDS011;4044;49.814;7.828;2023-03-30T06:42:03;7.83;;;3.33;;
7997;SDS011;4044;49.814;7.828;2023-03-30T06:44:30;8.13;;;3.37;;
7997;SDS011;4044;49.814;7.828;2023-03-30T06:46:56;4.80;;;3.40;;
7997;SDS011;4044;49.814;7.828;2023-03-30T06:49:21;6.93;;;4.27;;
7997;SDS011;4044;49.814;7.828;2023-03-30T06:51:47;7.87;;;3.60;;
7997;SDS011;4044;49.814;7.828;2023-03-30T06:54:13;5.03;;;3.67;;
7997;SDS011;4044;49.814;7.828;2023-03-30T06:56:38;8.37;;;3.97;;
7997;SDS011;4044;49.814;7.828;2023-03-30T06:59:04;6.47;;;3.70;;
7997;SDS011;4044;49.814;7.828;2023-03-30T07:01:29;6.27;;;4.10;;
7997;SDS011;4044;49.814;7.828;2023-03-30T07:03:55;4.33;;;3.43;;
7997;SDS011;4044;49.814;7.828;2023-03-30T07:06:21;7.10;;;4.10;;
7997;SDS011;4044;49.814;7.828;2023-03-30T07:08:46;6.37;;;3.90;;
7997;SDS011;4044;49.814;7.828;2023-03-30T07:11:12;7.47;;;3.77;;
7997;SDS011;4044;49.814;7.828;2023-03-30T07:13:38;6.47;;;4.30;;
7997;SDS011;4044;49.814;7.828;2023-03-30T07:16:04;6.57;;;3.87;;
7997;SDS011;4044;49.814;7.828;2023-03-30T07:18:30;6.10;;;3.70;;
7997;SDS011;4044;49.814;7.828;2023-03-30T07:20:58;9.27;;;3.90;;
7997;SDS011;4044;49.814;7.828;2023-03-30T07:23:24;4.17;;;3.70;;
7997;SDS011;4044;49.814;7.828;2023-03-30T07:25:50;8.67;;;3.83;;
7997;SDS011;4044;49.814;7.828;2023-03-30T07:28:17;5.07;;;3.80;;
7997;SDS011;4044;49.814;7.828;2023-03-30T07:30:42;6.93;;;4.00;;
7997;SDS011;4044;49.814;7.828;2023-03-30T07:33:08;6.93;;;4.00;;
7997;SDS011;4044;49.814;7.828;2023-03-30T07:35:34;6.20;;;3.67;;
7997;SDS011;4044;49.814;7.828;2023-03-30T07:37:59;5.00;;;3.43;;
7997;SDS011;4044;49.814;7.828;2023-03-30T07:40:25;8.13;;;3.60;;
7997;SDS011;4044;49.814;7.828;2023-03-30T07:42:51;7.83;;;3.43;;
7997;SDS011;4044;49.814;7.828;2023-03-30T07:45:16;4.07;;;3.27;;
7997;SDS011;4044;49.814;7.828;2023-03-30T07:47:42;6.17;;;3.53;;
7997;SDS011;4044;49.814;7.828;2023-03-30T07:50:08;6.07;;;3.80;;
7997;SDS011;4044;49.814;7.828;2023-03-30T07:52:33;6.80;;;3.80;;
7997;SDS011;4044;49.814;7.828;2023-03-30T07:54:59;7.00;;;4.00;;
7997;SDS011;4044;49.814;7.828;2023-03-30T07:57:25;6.53;;;3.40;;
7997;SDS011;4044;49.814;7.828;2023-03-30T07:59:51;4.70;;;3.40;;
7997;SDS011;4044;49.814;7.828;2023-03-30T08:02:16;6.73;;;3.57;;
7997;SDS011;4044;49.814;7.828;2023-03-30T08:04:42;9.47;;;3.87;;
7997;SDS011;4044;49.814;7.828;2023-03-30T08:07:08;5.07;;;3.13;;
7997;SDS011;4044;49.814;7.828;2023-03-30T08:09:35;5.67;;;3.70;;
7997;SDS011;4044;49.814;7.828;2023-03-30T08:12:01;7.07;;;3.70;;
7997;SDS011;4044;49.814;7.828;2023-03-30T08:14:26;4.40;;;3.47;;
7997;SDS011;4044;49.814;7.828;2023-03-30T08:16:53;5.00;;;3.53;;
7997;SDS011;4044;49.814;7.828;2023-03-30T08:19:19;3.27;;;2.97;;
7997;SDS011;4044;49.814;7.828;2023-03-30T08:21:47;5.10;;;3.30;;
7997;SDS011;4044;49.814;7.828;2023-03-30T08:24:12;3.47;;;3.03;;
7997;SDS011;4044;49.814;7.828;2023-03-30T08:26:38;4.93;;;3.25;;
7997;SDS011;4044;49.814;7.828;2023-03-30T08:29:04;5.25;;;3.10;;
7997;SDS011;4044;49.814;7.828;2023-03-30T08:31:30;3.10;;;2.80;;
7997;SDS011;4044;49.814;7.828;2023-03-30T08:33:57;5.72;;;3.30;;
7997;SDS011;4044;49.814;7.828;2023-03-30T08:36:23;5.13;;;2.78;;
7997;SDS011;4044;49.814;7.828;2023-03-30T08:38:48;4.00;;;3.10;;
7997;SDS011;4044;49.814;7.828;2023-03-30T08:44:05;4.70;;;2.85;;
7997;SDS011;4044;49.814;7.828;2023-03-30T08:46:50;6.20;;;3.15;;
7997;SDS011;4044;49.814;7.828;2023-03-30T08:49:17;5.10;;;3.30;;
7997;SDS011;4044;49.814;7.828;2023-03-30T08:51:44;6.65;;;3.13;;
7997;SDS011;4044;49.814;7.828;2023-03-30T08:54:17;3.63;;;2.80;;
7997;SDS011;4044;49.814;7.828;2023-03-30T08:57:27;5.55;;;3.13;;
7997;SDS011;4044;49.814;7.828;2023-03-30T08:59:42;6.13;;;3.38;;
7997;SDS011;4044;49.814;7.828;2023-03-30T09:02:17;3.80;;;3.17;;
7997;SDS011;4044;49.814;7.828;2023-03-30T09:04:51;5.63;;;3.70;;
7997;SDS011;4044;49.814;7.828;2023-03-30T09:10:16;6.10;;;3.45;;
7997;SDS011;4044;49.814;7.828;2023-03-30T09:12:47;6.32;;;3.78;;
7997;SDS011;4044;49.814;7.828;2023-03-30T09:15:30;4.68;;;3.70;;
7997;SDS011;4044;49.814;7.828;2023-03-30T09:20:55;4.32;;;3.58;;
7997;SDS011;4044;49.814;7.828;2023-03-30T09:23:22;5.55;;;3.17;;
7997;SDS011;4044;49.814;7.828;2023-03-30T09:28:39;4.93;;;2.88;;
7997;SDS011;4044;49.814;7.828;2023-03-30T09:31:31;5.30;;;3.08;;
7997;SDS011;4044;49.814;7.828;2023-03-30T09:34:07;5.55;;;3.47;;
7997;SDS011;4044;49.814;7.828;2023-03-30T09:39:20;5.30;;;3.03;;
7997;SDS011;4044;49.814;7.828;2023-03-30T09:44:48;4.97;;;2.97;;
7997;SDS011;4044;49.814;7.828;2023-03-30T09:50:00;4.95;;;2.60;;
7997;SDS011;4044;49.814;7.828;2023-03-30T09:52:29;5.32;;;3.05;;
7997;SDS011;4044;49.814;7.828;2023-03-30T09:55:03;3.13;;;2.75;;
7997;SDS011;4044;49.814;7.828;2023-03-30T09:57:48;4.30;;;2.75;;
7997;SDS011;4044;49.814;7.828;2023-03-30T10:00:30;4.40;;;2.40;;
7997;SDS011;4044;49.814;7.828;2023-03-30T10:02:57;5.38;;;2.35;;
7997;SDS011;4044;49.814;7.828;2023-03-30T10:05:26;7.07;;;3.08;;
7997;SDS011;4044;49.814;7.828;2023-03-30T10:07:56;4.72;;;2.20;;
7997;SDS011;4044;49.814;7.828;2023-03-30T10:10:33;4.80;;;2.20;;
7997;SDS011;4044;49.814;7.828;2023-03-30T10:13:13;3.17;;;2.50;;
7997;SDS011;4044;49.814;7.828;2023-03-30T10:15:42;4.10;;;2.35;;
7997;SDS011;4044;49.814;7.828;2023-03-30T10:18:23;5.22;;;2.58;;
7997;SDS011;4044;49.814;7.828;2023-03-30T10:20:53;3.38;;;2.70;;
7997;SDS011;4044;49.814;7.828;2023-03-30T10:23:31;5.65;;;2.78;;
7997;SDS011;4044;49.814;7.828;2023-03-30T10:26:16;4.88;;;2.40;;
7997;SDS011;4044;49.814;7.828;2023-03-30T10:28:55;5.80;;;2.42;;
7997;SDS011;4044;49.814;7.828;2023-03-30T10:31:27;3.88;;;2.30;;
7997;SDS011;4044;49.814;7.828;2023-03-30T10:33:56;5.20;;;2.55;;
7997;SDS011;4044;49.814;7.828;2023-03-30T10:36:27;2.92;;;1.90;;
7997;SDS011;4044;49.814;7.828;2023-03-30T10:39:10;5.65;;;2.40;;
7997;SDS011;4044;49.814;7.828;2023-03-30T10:41:48;5.55;;;2.28;;
7997;SDS011;4044;49.814;7.828;2023-03-30T10:46:49;5.75;;;2.40;;
7997;SDS011;4044;49.814;7.828;2023-03-30T10:52:02;4.47;;;2.10;;
7997;SDS011;4044;49.814;7.828;2023-03-30T10:57:19;4.07;;;1.70;;
7997;SDS011;4044;49.814;7.828;2023-03-30T11:05:24;3.85;;;1.75;;
7997;SDS011;4044;49.814;7.828;2023-03-30T11:08:10;3.55;;;1.83;;
7997;SDS011;4044;49.814;7.828;2023-03-30T11:10:41;2.25;;;1.80;;
7997;SDS011;4044;49.814;7.828;2023-03-30T11:13:21;1.90;;;1.63;;
7997;SDS011;4044;49.814;7.828;2023-03-30T11:15:59;3.58;;;1.45;;
7997;SDS011;4044;49.814;7.828;2023-03-30T11:21:16;2.47;;;1.60;;
7997;SDS011;4044;49.814;7.828;2023-03-30T11:26:17;5.10;;;1.60;;
7997;SDS011;4044;49.814;7.828;2023-03-30T11:28:56;5.75;;;2.30;;
7997;SDS011;4044;49.814;7.828;2023-03-30T11:31:47;4.47;;;1.85;;
7997;SDS011;4044;49.814;7.828;2023-03-30T11:37:10;4.90;;;1.88;;
7997;SDS011;4044;49.814;7.828;2023-03-30T11:39:38;4.60;;;1.70;;
7997;SDS011;4044;49.814;7.828;2023-03-30T11:42:12;1.77;;;1.42;;
7997;SDS011;4044;49.814;7.828;2023-03-30T11:44:39;3.13;;;1.60;;
7997;SDS011;4044;49.814;7.828;2023-03-30T11:49:59;4.20;;;1.50;;
7997;SDS011;4044;49.814;7.828;2023-03-30T11:52:35;4.07;;;1.83;;
7997;SDS011;4044;49.814;7.828;2023-03-30T11:58:19;3.40;;;1.70;;
7997;SDS011;4044;49.814;7.828;2023-03-30T12:01:11;2.28;;;1.50;;
7997;SDS011;4044;49.814;7.828;2023-03-30T12:03:45;4.43;;;1.73;;
7997;SDS011;4044;49.814;7.828;2023-03-30T12:08:52;3.63;;;1.90;;
7997;SDS011;4044;49.814;7.828;2023-03-30T12:13:54;4.53;;;1.75;;
7997;SDS011;4044;49.814;7.828;2023-03-30T12:16:43;3.90;;;1.40;;
7997;SDS011;4044;49.814;7.828;2023-03-30T12:19:12;3.10;;;1.40;;
7997;SDS011;4044;49.814;7.828;2023-03-30T12:21:44;2.67;;;1.50;;
7997;SDS011;4044;49.814;7.828;2023-03-30T12:26:49;2.28;;;1.38;;
7997;SDS011;4044;49.814;7.828;2023-03-30T12:29:16;4.55;;;1.75;;
7997;SDS011;4044;49.814;7.828;2023-03-30T12:34:23;2.30;;;1.50;;
7997;SDS011;4044;49.814;7.828;2023-03-30T12:39:52;3.30;;;1.58;;
7997;SDS011;4044;49.814;7.828;2023-03-30T12:42:21;2.83;;;1.50;;
7997;SDS011;4044;49.814;7.828;2023-03-30T12:56:26;3.47;;;1.60;;
7997;SDS011;4044;49.814;7.828;2023-03-30T13:04:34;4.32;;;1.35;;
7997;SDS011;4044;49.814;7.828;2023-03-30T13:07:22;4.28;;;1.63;;
7997;SDS011;4044;49.814;7.828;2023-03-30T13:09:57;2.50;;;1.55;;
7997;SDS011;4044;49.814;7.828;2023-03-30T13:12:37;3.67;;;1.80;;
7997;SDS011;4044;49.814;7.828;2023-03-30T13:17:57;2.30;;;1.60;;
7997;SDS011;4044;49.814;7.828;2023-03-30T13:20:32;4.93;;;1.60;;
7997;SDS011;4044;49.814;7.828;2023-03-30T13:25:35;3.42;;;1.65;;
7997;SDS011;4044;49.814;7.828;2023-03-30T13:28:29;2.28;;;1.40;;
7997;SDS011;4044;49.814;7.828;2023-03-30T13:33:44;2.55;;;1.60;;
7997;SDS011;4044;49.814;7.828;2023-03-30T13:36:14;2.35;;;1.60;;
7997;SDS011;4044;49.814;7.828;2023-03-30T13:39:07;3.60;;;1.75;;
7997;SDS011;4044;49.814;7.828;2023-03-30T13:44:45;2.63;;;1.48;;
7997;SDS011;4044;49.814;7.828;2023-03-30T13:49:59;2.13;;;1.23;;
7997;SDS011;4044;49.814;7.828;2023-03-30T13:52:30;1.30;;;1.20;;
7997;SDS011;4044;49.814;7.828;2023-03-30T13:55:00;1.60;;;1.13;;
7997;SDS011;4044;49.814;7.828;2023-03-30T13:57:32;2.90;;;1.23;;
7997;SDS011;4044;49.814;7.828;2023-03-30T14:00:19;2.28;;;1.10;;
7997;SDS011;4044;49.814;7.828;2023-03-30T14:02:45;1.98;;;1.33;;
7997;SDS011;4044;49.814;7.828;2023-03-30T14:05:24;1.65;;;1.20;;
7997;SDS011;4044;49.814;7.828;2023-03-30T14:07:54;2.95;;;1.10;;
7997;SDS011;4044;49.814;7.828;2023-03-30T14:10:21;2.08;;;1.40;;
7997;SDS011;4044;49.814;7.828;2023-03-30T14:12:47;1.27;;;1.17;;
7997;SDS011;4044;49.814;7.828;2023-03-30T14:17:55;2.90;;;1.50;;
7997;SDS011;4044;49.814;7.828;2023-03-30T14:23:19;1.83;;;1.10;;
7997;SDS011;4044;49.814;7.828;2023-03-30T14:25:53;3.40;;;2.08;;
7997;SDS011;4044;49.814;7.828;2023-03-30T14:28:25;3.53;;;1.75;;
7997;SDS011;4044;49.814;7.828;2023-03-30T14:30:53;2.80;;;1.50;;
7997;SDS011;4044;49.814;7.828;2023-03-30T14:33:20;3.40;;;1.70;;
7997;SDS011;4044;49.814;7.828;2023-03-30T14:35:47;2.47;;;1.20;;
7997;SDS011;4044;49.814;7.828;2023-03-30T14:38:20;3.60;;;1.60;;
7997;SDS011;4044;49.814;7.828;2023-03-30T14:40:48;2.42;;;1.42;;
7997;SDS011;4044;49.814;7.828;2023-03-30T14:43:16;2.97;;;1.52;;
7997;SDS011;4044;49.814;7.828;2023-03-30T14:45:46;4.28;;;1.73;;
7997;SDS011;4044;49.814;7.828;2023-03-30T14:48:17;3.70;;;1.55;;
7997;SDS011;4044;49.814;7.828;2023-03-30T14:51:05;2.97;;;1.73;;
7997;SDS011;4044;49.814;7.828;2023-03-30T14:53:33;2.03;;;1.20;;
7997;SDS011;4044;49.814;7.828;2023-03-30T14:56:00;2.20;;;1.65;;
7997;SDS011;4044;49.814;7.828;2023-03-30T14:58:27;2.55;;;1.40;;
7997;SDS011;4044;49.814;7.828;2023-03-30T15:00:56;3.13;;;1.50;;
7997;SDS011;4044;49.814;7.828;2023-03-30T15:03:29;4.65;;;1.80;;
7997;SDS011;4044;49.814;7.828;2023-03-30T15:06:01;3.50;;;1.65;;
7997;SDS011;4044;49.814;7.828;2023-03-30T15:08:29;3.17;;;1.67;;
7997;SDS011;4044;49.814;7.828;2023-03-30T15:11:00;3.65;;;1.30;;
7997;SDS011;4044;49.814;7.828;2023-03-30T15:15:57;3.92;;;1.45;;
7997;SDS011;4044;49.814;7.828;2023-03-30T15:18:25;3.65;;;1.73;;
7997;SDS011;4044;49.814;7.828;2023-03-30T15:20:53;5.85;;;1.83;;
7997;SDS011;4044;49.814;7.828;2023-03-30T15:23:19;4.80;;;1.92;;
7997;SDS011;4044;49.814;7.828;2023-03-30T15:25:45;4.43;;;1.80;;
7997;SDS011;4044;49.814;7.828;2023-03-30T15:28:15;3.22;;;1.85;;
7997;SDS011;4044;49.814;7.828;2023-03-30T15:30:43;7.00;;;1.80;;
7997;SDS011;4044;49.814;7.828;2023-03-30T15:33:22;3.97;;;1.80;;
7997;SDS011;4044;49.814;7.828;2023-03-30T15:35:48;6.13;;;1.83;;
7997;SDS011;4044;49.814;7.828;2023-03-30T15:38:16;4.70;;;1.87;;
7997;SDS011;4044;49.814;7.828;2023-03-30T15:40:46;5.60;;;2.17;;
7997;SDS011;4044;49.814;7.828;2023-03-30T15:43:27;4.83;;;2.23;;
7997;SDS011;4044;49.814;7.828;2023-03-30T15:46:03;4.97;;;1.80;;
7997;SDS011;4044;49.814;7.828;2023-03-30T15:48:34;6.93;;;2.10;;
7997;SDS011;4044;49.814;7.828;2023-03-30T15:51:21;3.53;;;1.70;;
7997;SDS011;4044;49.814;7.828;2023-03-30T15:56:38;5.63;;;1.70;;
7997;SDS011;4044;49.814;7.828;2023-03-30T15:59:11;3.00;;;1.27;;
7997;SDS011;4044;49.814;7.828;2023-03-30T16:04:20;3.92;;;1.95;;
7997;SDS011;4044;49.814;7.828;2023-03-30T16:06:47;4.20;;;1.80;;
7997;SDS011;4044;49.814;7.828;2023-03-30T16:09:13;3.97;;;1.80;;
7997;SDS011;4044;49.814;7.828;2023-03-30T16:11:39;3.03;;;1.60;;
7997;SDS011;4044;49.814;7.828;2023-03-30T16:14:06;5.43;;;1.77;;
7997;SDS011;4044;49.814;7.828;2023-03-30T16:16:36;3.17;;;1.50;;
7997;SDS011;4044;49.814;7.828;2023-03-30T16:19:02;3.80;;;1.50;;
7997;SDS011;4044;49.814;7.828;2023-03-30T16:21:27;3.70;;;1.98;;
7997;SDS011;4044;49.814;7.828;2023-03-30T16:23:53;2.42;;;1.70;;
7997;SDS011;4044;49.814;7.828;2023-03-30T16:26:18;4.65;;;1.63;;
7997;SDS011;4044;49.814;7.828;2023-03-30T16:28:44;2.75;;;1.40;;
7997;SDS011;4044;49.814;7.828;2023-03-30T16:31:18;3.45;;;1.52;;
7997;SDS011;4044;49.814;7.828;2023-03-30T16:33:46;3.72;;;1.50;;
7997;SDS011;4044;49.814;7.828;2023-03-30T16:36:13;2.58;;;1.33;;
7997;SDS011;4044;49.814;7.828;2023-03-30T16:38:41;2.50;;;1.30;;
7997;SDS011;4044;49.814;7.828;2023-03-30T16:41:09;3.15;;;1.55;;
7997;SDS011;4044;49.814;7.828;2023-03-30T16:43:38;4.95;;;1.50;;
7997;SDS011;4044;49.814;7.828;2023-03-30T16:46:03;6.18;;;2.08;;
7997;SDS011;4044;49.814;7.828;2023-03-30T16:48:29;3.72;;;1.83;;
7997;SDS011;4044;49.814;7.828;2023-03-30T16:50:54;3.88;;;2.00;;
7997;SDS011;4044;49.814;7.828;2023-03-30T16:53:23;6.75;;;1.90;;
7997;SDS011;4044;49.814;7.828;2023-03-30T16:55:48;2.92;;;1.52;;
7997;SDS011;4044;49.814;7.828;2023-03-30T16:58:15;6.32;;;1.65;;
7997;SDS011;4044;49.814;7.828;2023-03-30T17:03:08;5.30;;;2.13;;
7997;SDS011;4044;49.814;7.828;2023-03-30T17:05:33;4.20;;;1.60;;
7997;SDS011;4044;49.814;7.828;2023-03-30T17:08:03;3.20;;;1.58;;
7997;SDS011;4044;49.814;7.828;2023-03-30T17:10:35;6.25;;;2.00;;
7997;SDS011;4044;49.814;7.828;2023-03-30T17:13:03;7.47;;;2.17;;
7997;SDS011;4044;49.814;7.828;2023-03-30T17:15:28;4.43;;;2.03;;
7997;SDS011;4044;49.814;7.828;2023-03-30T17:17:55;4.68;;;1.80;;
7997;SDS011;4044;49.814;7.828;2023-03-30T17:20:23;4.25;;;2.00;;
7997;SDS011;4044;49.814;7.828;2023-03-30T17:23:03;4.22;;;1.73;;
7997;SDS011;4044;49.814;7.828;2023-03-30T17:25:29;4.47;;;1.65;;
7997;SDS011;4044;49.814;7.828;2023-03-30T17:27:55;6.72;;;2.33;;
7997;SDS011;4044;49.814;7.828;2023-03-30T17:30:23;4.30;;;1.92;;
7997;SDS011;4044;49.814;7.828;2023-03-30T17:32:54;6.35;;;2.08;;
7997;SDS011;4044;49.814;7.828;2023-03-30T17:35:21;6.95;;;1.90;;
7997;SDS011;4044;49.814;7.828;2023-03-30T17:37:47;7.47;;;2.20;;
7997;SDS011;4044;49.814;7.828;2023-03-30T17:40:21;4.83;;;1.70;;
7997;SDS011;4044;49.814;7.828;2023-03-30T17:42:51;4.57;;;2.03;;
7997;SDS011;4044;49.814;7.828;2023-03-30T17:45:18;4.80;;;1.87;;
7997;SDS011;4044;49.814;7.828;2023-03-30T17:47:45;6.10;;;2.20;;
7997;SDS011;4044;49.814;7.828;2023-03-30T17:50:14;7.30;;;2.53;;
7997;SDS011;4044;49.814;7.828;2023-03-30T17:52:52;5.50;;;2.00;;
7997;SDS011;4044;49.814;7.828;2023-03-30T17:55:20;5.53;;;1.83;;
7997;SDS011;4044;49.814;7.828;2023-03-30T17:57:46;4.67;;;1.80;;
7997;SDS011;4044;49.814;7.828;2023-03-30T18:00:16;6.07;;;1.93;;
7997;SDS011;4044;49.814;7.828;2023-03-30T18:02:44;3.70;;;1.80;;